createdAt,value
2023-01-25T00:00:05.694Z,10.60
2023-01-25T00:00:38.404Z,10.50
2023-01-25T00:01:11.050Z,10.10
2023-01-25T00:01:43.736Z,10.10
2023-01-25T00:02:16.427Z,10.30
2023-01-25T00:02:49.166Z,10.70
2023-01-25T00:03:21.907Z,10.20
2023-01-25T00:03:54.611Z,10.60
2023-01-25T00:04:27.283Z,10.00
2023-01-25T00:04:59.972Z,10.50
2023-01-25T00:05:32.651Z,10.90
2023-01-25T00:06:05.320Z,10.60
2023-01-25T00:06:37.993Z,10.40
2023-01-25T00:07:10.667Z,10.50
2023-01-25T00:07:43.333Z,10.70
2023-01-25T00:08:16.008Z,10.50
2023-01-25T00:08:48.681Z,10.30
2023-01-25T00:09:21.349Z,10.10
2023-01-25T00:09:54.079Z,10.20
2023-01-25T00:10:28.456Z,10.00
2023-01-25T00:10:56.293Z,10.00
2023-01-25T00:11:23.655Z,10.50
2023-01-25T00:11:56.401Z,9.80
2023-01-25T00:12:29.064Z,10.30
2023-01-25T00:13:01.734Z,10.40
2023-01-25T00:13:34.403Z,10.20
2023-01-25T00:14:07.102Z,10.30
2023-01-25T00:14:39.752Z,10.20
2023-01-25T00:15:12.449Z,10.60
2023-01-25T00:15:45.102Z,10.40
2023-01-25T00:16:17.850Z,10.60
2023-01-25T00:16:50.608Z,10.20
2023-01-25T00:17:23.346Z,10.30
2023-01-25T00:17:56.018Z,9.70
2023-01-25T00:18:28.704Z,10.30
2023-01-25T00:19:01.361Z,10.60
2023-01-25T00:19:34.038Z,10.50
2023-01-25T00:20:06.696Z,10.30
2023-01-25T00:20:39.392Z,10.10
2023-01-25T00:21:06.523Z,10.40
2023-01-25T00:21:39.247Z,10.20
2023-01-25T00:22:11.896Z,10.60
2023-01-25T00:22:44.556Z,9.80
2023-01-25T00:23:17.222Z,10.60
2023-01-25T00:23:49.939Z,9.80
2023-01-25T00:24:22.688Z,10.20
2023-01-25T00:24:55.350Z,10.30
2023-01-25T00:25:28.036Z,10.40
2023-01-25T00:26:00.735Z,10.70
2023-01-25T00:26:33.401Z,10.50
2023-01-25T00:27:06.074Z,10.70
2023-01-25T00:27:38.736Z,10.10
2023-01-25T00:28:11.414Z,10.20
2023-01-25T00:28:44.076Z,10.20
2023-01-25T00:29:16.742Z,10.30
2023-01-25T00:29:49.404Z,10.50
2023-01-25T00:30:22.093Z,10.30
2023-01-25T00:30:54.759Z,10.60
2023-01-25T00:31:27.566Z,10.50
2023-01-25T00:32:00.403Z,10.60
2023-01-25T00:32:33.246Z,10.20
2023-01-25T00:33:05.953Z,10.80
2023-01-25T00:33:38.646Z,10.40
2023-01-25T00:34:11.313Z,10.20
2023-01-25T00:34:43.981Z,10.50
2023-01-25T00:35:16.669Z,10.60
2023-01-25T00:35:49.416Z,10.80
2023-01-25T00:36:22.087Z,10.90
2023-01-25T00:36:54.773Z,10.20
2023-01-25T00:37:27.431Z,10.70
2023-01-25T00:38:00.113Z,10.80
2023-01-25T00:38:32.766Z,11.20
2023-01-25T00:39:05.448Z,11.90
2023-01-25T00:39:38.103Z,13.60
2023-01-25T00:40:10.833Z,14.40
2023-01-25T00:40:43.463Z,14.80
2023-01-25T00:41:16.175Z,15.00
2023-01-25T00:41:48.827Z,14.50
2023-01-25T00:42:21.499Z,13.60
2023-01-25T00:42:54.164Z,12.80
2023-01-25T00:43:26.837Z,12.80
2023-01-25T00:43:59.518Z,12.90
2023-01-25T00:44:32.168Z,12.00
2023-01-25T00:45:05.022Z,12.20
2023-01-25T00:45:37.858Z,13.40
2023-01-25T00:46:10.574Z,14.80
2023-01-25T00:46:43.255Z,14.20
2023-01-25T00:47:15.944Z,13.60
2023-01-25T00:47:48.599Z,13.60
2023-01-25T00:48:21.266Z,13.50
2023-01-25T00:48:53.939Z,13.70
2023-01-25T00:49:26.620Z,13.00
2023-01-25T00:49:59.278Z,12.40
2023-01-25T00:50:31.983Z,11.70
2023-01-25T00:51:04.668Z,11.70
2023-01-25T00:51:37.327Z,11.10
2023-01-25T00:52:09.996Z,11.30
2023-01-25T00:52:42.670Z,11.30
2023-01-25T00:53:15.334Z,11.10
2023-01-25T00:53:48.006Z,10.40
2023-01-25T00:54:20.681Z,11.10
2023-01-25T00:54:53.336Z,10.80
2023-01-25T00:55:26.965Z,10.50
2023-01-25T00:55:53.336Z,11.10
2023-01-25T00:56:26.032Z,10.60
2023-01-25T00:56:58.677Z,10.10
2023-01-25T00:57:31.373Z,11.20
2023-01-25T00:58:04.045Z,10.90
2023-01-25T00:58:36.709Z,11.20
2023-01-25T00:59:09.381Z,10.30
2023-01-25T00:59:42.056Z,10.80
2023-01-25T01:00:14.745Z,10.60
2023-01-25T01:00:47.514Z,10.30
2023-01-25T01:01:20.273Z,10.90
2023-01-25T01:01:52.912Z,10.90
2023-01-25T01:02:25.601Z,10.90
2023-01-25T01:02:58.254Z,10.80
2023-01-25T01:03:30.973Z,10.80
2023-01-25T01:04:05.705Z,10.90
2023-01-25T01:04:32.609Z,10.30
2023-01-25T01:05:05.696Z,10.40
2023-01-25T01:05:32.094Z,10.50
2023-01-25T01:06:04.781Z,11.10
2023-01-25T01:06:37.453Z,10.60
2023-01-25T01:07:10.123Z,11.00
2023-01-25T01:07:42.796Z,10.30
2023-01-25T01:08:15.469Z,10.80
2023-01-25T01:08:48.137Z,10.20
2023-01-25T01:09:20.803Z,10.40
2023-01-25T01:09:53.471Z,10.70
2023-01-25T01:10:26.160Z,10.60
2023-01-25T01:10:58.823Z,10.60
2023-01-25T01:11:31.521Z,10.80
2023-01-25T01:12:04.165Z,10.80
2023-01-25T01:12:36.831Z,10.50
2023-01-25T01:13:09.533Z,10.80
2023-01-25T01:13:42.214Z,10.80
2023-01-25T01:14:14.867Z,10.30
2023-01-25T01:14:47.541Z,10.50
2023-01-25T01:15:20.228Z,11.00
2023-01-25T01:15:52.931Z,10.70
2023-01-25T01:16:25.752Z,10.80
2023-01-25T01:16:58.519Z,10.70
2023-01-25T01:17:31.173Z,10.60
2023-01-25T01:18:03.844Z,10.10
2023-01-25T01:18:36.510Z,10.10
2023-01-25T01:19:09.544Z,10.60
2023-01-25T01:19:35.732Z,10.40
2023-01-25T01:20:08.423Z,10.70
2023-01-25T01:20:41.082Z,10.90
2023-01-25T01:21:13.754Z,10.50
2023-01-25T01:21:46.437Z,10.50
2023-01-25T01:22:19.121Z,11.00
2023-01-25T01:22:51.784Z,10.70
2023-01-25T01:23:24.460Z,10.30
2023-01-25T01:23:57.283Z,11.00
2023-01-25T01:24:30.146Z,10.30
2023-01-25T01:24:56.450Z,10.80
2023-01-25T01:25:29.128Z,11.20
2023-01-25T01:26:01.798Z,11.00
2023-01-25T01:26:34.486Z,11.10
2023-01-25T01:27:07.130Z,10.70
2023-01-25T01:27:39.795Z,10.90
2023-01-25T01:28:12.462Z,10.80
2023-01-25T01:28:45.134Z,11.00
2023-01-25T01:29:17.804Z,11.00
2023-01-25T01:29:50.478Z,10.90
2023-01-25T01:30:23.155Z,10.90
2023-01-25T01:30:55.838Z,11.40
2023-01-25T01:31:28.645Z,10.40
2023-01-25T01:32:01.459Z,11.10
2023-01-25T01:32:34.290Z,11.10
2023-01-25T01:33:07.031Z,10.70
2023-01-25T01:33:39.694Z,11.20
2023-01-25T01:34:12.572Z,11.00
2023-01-25T01:34:45.233Z,10.80
2023-01-25T01:35:17.936Z,10.90
2023-01-25T01:35:50.601Z,11.10
2023-01-25T01:36:23.269Z,10.70
2023-01-25T01:36:55.954Z,11.50
2023-01-25T01:37:28.613Z,11.20
2023-01-25T01:38:01.301Z,10.90
2023-01-25T01:38:33.985Z,11.20
2023-01-25T01:39:06.668Z,10.30
2023-01-25T01:39:39.330Z,10.90
2023-01-25T01:40:12.033Z,10.90
2023-01-25T01:40:44.691Z,11.00
2023-01-25T01:41:17.366Z,11.40
2023-01-25T01:41:50.056Z,10.80
2023-01-25T01:42:22.697Z,11.20
2023-01-25T01:42:55.395Z,11.00
2023-01-25T01:43:28.104Z,10.90
2023-01-25T01:44:00.809Z,10.90
2023-01-25T01:44:33.438Z,11.00
2023-01-25T01:45:06.479Z,11.00
2023-01-25T01:45:32.819Z,11.10
2023-01-25T01:46:05.530Z,11.40
2023-01-25T01:46:38.185Z,11.30
2023-01-25T01:47:10.838Z,11.20
2023-01-25T01:47:43.507Z,10.70
2023-01-25T01:48:16.171Z,11.40
2023-01-25T01:48:48.847Z,11.20
2023-01-25T01:49:21.520Z,10.70
2023-01-25T01:49:54.214Z,11.40
2023-01-25T01:50:26.864Z,10.60
2023-01-25T01:50:59.534Z,11.20
2023-01-25T01:51:32.208Z,10.90
2023-01-25T01:52:04.888Z,11.10
2023-01-25T01:52:37.550Z,10.90
2023-01-25T01:53:10.243Z,10.80
2023-01-25T01:53:42.905Z,10.90
2023-01-25T01:54:15.575Z,10.80
2023-01-25T01:54:48.273Z,11.00
2023-01-25T01:55:20.962Z,11.00
2023-01-25T01:55:53.671Z,11.60
2023-01-25T01:56:26.381Z,11.30
2023-01-25T01:56:59.065Z,11.10
2023-01-25T01:57:31.714Z,10.70
2023-01-25T01:58:04.397Z,11.00
2023-01-25T01:58:37.060Z,11.70
2023-01-25T01:59:09.744Z,11.30
2023-01-25T01:59:42.428Z,11.00
2023-01-25T02:00:15.097Z,11.40
2023-01-25T02:00:47.765Z,11.20
2023-01-25T02:01:20.540Z,11.40
2023-01-25T02:01:53.206Z,10.50
2023-01-25T02:02:25.989Z,11.30
2023-01-25T02:02:58.679Z,10.70
2023-01-25T02:03:31.358Z,11.20
2023-01-25T02:04:04.035Z,11.10
2023-01-25T02:04:36.686Z,11.40
2023-01-25T02:05:09.838Z,11.10
2023-01-25T02:05:36.077Z,10.60
2023-01-25T02:06:08.749Z,11.10
2023-01-25T02:06:41.422Z,11.10
2023-01-25T02:07:14.095Z,11.70
2023-01-25T02:07:46.772Z,11.40
2023-01-25T02:08:19.454Z,11.50
2023-01-25T02:08:52.128Z,11.20
2023-01-25T02:09:24.815Z,11.00
2023-01-25T02:09:57.480Z,11.00
2023-01-25T02:10:30.159Z,11.30
2023-01-25T02:11:02.842Z,11.60
2023-01-25T02:11:35.506Z,11.10
2023-01-25T02:12:08.216Z,11.20
2023-01-25T02:12:40.859Z,11.00
2023-01-25T02:13:13.545Z,11.30
2023-01-25T02:13:46.216Z,11.30
2023-01-25T02:14:18.892Z,10.80
2023-01-25T02:14:51.588Z,10.90
2023-01-25T02:15:24.266Z,11.30
2023-01-25T02:15:56.961Z,10.90
2023-01-25T02:16:29.629Z,11.00
2023-01-25T02:17:02.292Z,11.40
2023-01-25T02:17:34.983Z,11.60
2023-01-25T02:18:07.643Z,11.50
2023-01-25T02:18:40.292Z,11.50
2023-01-25T02:19:12.976Z,11.10
2023-01-25T02:19:45.642Z,10.70
2023-01-25T02:20:18.338Z,11.00
2023-01-25T02:20:51.016Z,11.20
2023-01-25T02:21:23.683Z,11.80
2023-01-25T02:21:56.356Z,11.10
2023-01-25T02:22:29.027Z,11.40
2023-01-25T02:23:01.691Z,11.30
2023-01-25T02:23:34.365Z,10.70
2023-01-25T02:24:07.101Z,11.20
2023-01-25T02:24:39.761Z,11.50
2023-01-25T02:25:12.441Z,11.20
2023-01-25T02:25:45.110Z,10.80
2023-01-25T02:26:17.772Z,10.70
2023-01-25T02:26:50.439Z,11.20
2023-01-25T02:27:23.130Z,10.60
2023-01-25T02:27:55.772Z,11.40
2023-01-25T02:28:28.447Z,10.80
2023-01-25T02:29:01.152Z,11.30
2023-01-25T02:29:33.788Z,11.10
2023-01-25T02:30:06.461Z,10.80
2023-01-25T02:30:39.148Z,10.90
2023-01-25T02:31:11.973Z,11.60
2023-01-25T02:31:44.760Z,11.50
2023-01-25T02:32:17.475Z,11.40
2023-01-25T02:32:50.141Z,11.10
2023-01-25T02:33:22.816Z,11.00
2023-01-25T02:33:55.499Z,12.20
2023-01-25T02:34:28.256Z,11.40
2023-01-25T02:35:00.916Z,11.70
2023-01-25T02:35:33.597Z,10.70
2023-01-25T02:36:06.264Z,11.40
2023-01-25T02:36:38.933Z,10.90
2023-01-25T02:37:11.603Z,11.80
2023-01-25T02:37:44.266Z,11.50
2023-01-25T02:38:16.948Z,10.90
2023-01-25T02:38:49.626Z,11.40
2023-01-25T02:39:22.277Z,11.30
2023-01-25T02:39:54.938Z,11.40
2023-01-25T02:40:27.622Z,11.20
2023-01-25T02:41:00.283Z,11.20
2023-01-25T02:41:32.945Z,11.30
2023-01-25T02:42:05.604Z,10.80
2023-01-25T02:42:38.294Z,10.90
2023-01-25T02:43:10.943Z,11.20
2023-01-25T02:43:43.661Z,10.90
2023-01-25T02:44:16.309Z,11.50
2023-01-25T02:44:48.984Z,11.40
2023-01-25T02:45:21.669Z,11.20
2023-01-25T02:45:54.370Z,11.70
2023-01-25T02:46:27.029Z,11.70
2023-01-25T02:46:59.698Z,11.30
2023-01-25T02:47:32.350Z,11.50
2023-01-25T02:48:05.022Z,11.20
2023-01-25T02:48:37.701Z,11.50
2023-01-25T02:49:10.377Z,11.40
2023-01-25T02:49:43.031Z,11.40
2023-01-25T02:50:16.064Z,11.20
2023-01-25T02:50:42.209Z,11.90
2023-01-25T02:51:14.894Z,10.60
2023-01-25T02:51:47.558Z,11.50
2023-01-25T02:52:18.643Z,11.50
2023-01-25T02:52:51.320Z,10.80
2023-01-25T02:53:24.014Z,11.40
2023-01-25T02:53:55.109Z,10.80
2023-01-25T02:54:27.778Z,10.90
2023-01-25T02:55:00.441Z,11.60
2023-01-25T02:55:33.113Z,11.30
2023-01-25T02:56:05.790Z,11.00
2023-01-25T02:56:38.462Z,11.40
2023-01-25T02:57:09.545Z,11.70
2023-01-25T02:57:42.239Z,10.90
2023-01-25T02:58:14.904Z,11.20
2023-01-25T02:58:45.993Z,11.70
2023-01-25T02:59:18.660Z,11.00
2023-01-25T02:59:51.336Z,11.30
2023-01-25T03:00:24.022Z,11.30
2023-01-25T03:00:56.693Z,11.40
2023-01-25T03:01:29.629Z,11.90
2023-01-25T03:02:02.335Z,11.30
2023-01-25T03:02:35.036Z,11.80
2023-01-25T03:03:07.697Z,11.30
2023-01-25T03:03:40.358Z,11.10
2023-01-25T03:04:13.033Z,11.10
2023-01-25T03:04:45.697Z,11.00
2023-01-25T03:05:18.387Z,11.30
2023-01-25T03:05:51.047Z,11.60
2023-01-25T03:06:23.716Z,11.70
2023-01-25T03:06:56.428Z,11.30
2023-01-25T03:07:29.083Z,10.70
2023-01-25T03:08:01.742Z,12.10
2023-01-25T03:08:34.414Z,11.80
2023-01-25T03:09:07.103Z,11.30
2023-01-25T03:09:39.786Z,11.80
2023-01-25T03:10:12.463Z,11.70
2023-01-25T03:10:45.135Z,11.30
2023-01-25T03:11:17.806Z,11.90
2023-01-25T03:11:50.476Z,11.90
2023-01-25T03:12:23.156Z,11.40
2023-01-25T03:12:55.854Z,11.60
2023-01-25T03:13:28.495Z,11.70
2023-01-25T03:14:01.170Z,12.00
2023-01-25T03:14:33.831Z,11.60
2023-01-25T03:15:06.927Z,11.80
2023-01-25T03:15:33.272Z,11.70
2023-01-25T03:16:05.972Z,12.20
2023-01-25T03:16:38.768Z,11.40
2023-01-25T03:17:11.467Z,11.50
2023-01-25T03:17:44.138Z,12.10
2023-01-25T03:18:16.825Z,11.90
2023-01-25T03:18:49.504Z,11.60
2023-01-25T03:19:22.164Z,11.00
2023-01-25T03:19:54.827Z,11.60
2023-01-25T03:20:27.534Z,11.30
2023-01-25T03:21:00.183Z,12.10
2023-01-25T03:21:32.848Z,11.30
2023-01-25T03:22:05.521Z,11.70
2023-01-25T03:22:38.219Z,11.70
2023-01-25T03:23:10.858Z,11.70
2023-01-25T03:23:43.529Z,12.20
2023-01-25T03:24:16.287Z,11.10
2023-01-25T03:24:47.283Z,11.70
2023-01-25T03:25:19.968Z,11.70
2023-01-25T03:25:52.688Z,11.70
2023-01-25T03:26:25.344Z,11.40
2023-01-25T03:26:58.016Z,11.10
2023-01-25T03:27:30.683Z,11.70
2023-01-25T03:28:03.387Z,11.40
2023-01-25T03:28:36.027Z,11.10
2023-01-25T03:29:08.729Z,11.10
2023-01-25T03:29:41.395Z,11.40
2023-01-25T03:30:14.080Z,11.50
2023-01-25T03:30:46.882Z,11.30
2023-01-25T03:31:19.550Z,11.00
2023-01-25T03:31:52.483Z,11.70
2023-01-25T03:32:25.177Z,11.90
2023-01-25T03:32:57.844Z,11.50
2023-01-25T03:33:30.518Z,11.90
2023-01-25T03:34:03.195Z,12.10
2023-01-25T03:34:35.869Z,12.30
2023-01-25T03:35:08.870Z,11.60
2023-01-25T03:35:35.194Z,11.60
2023-01-25T03:36:07.904Z,11.50
2023-01-25T03:36:40.677Z,11.30
2023-01-25T03:37:13.354Z,12.00
2023-01-25T03:37:46.028Z,11.10
2023-01-25T03:38:18.695Z,11.50
2023-01-25T03:38:51.362Z,11.00
2023-01-25T03:39:24.035Z,11.30
2023-01-25T03:39:56.716Z,11.30
2023-01-25T03:40:29.392Z,12.00
2023-01-25T03:41:02.054Z,11.70
2023-01-25T03:41:34.723Z,11.90
2023-01-25T03:42:07.429Z,11.60
2023-01-25T03:42:40.076Z,11.50
2023-01-25T03:43:12.770Z,11.80
2023-01-25T03:43:45.433Z,12.10
2023-01-25T03:44:18.095Z,10.90
2023-01-25T03:44:50.767Z,11.80
2023-01-25T03:45:23.467Z,12.10
2023-01-25T03:45:56.148Z,12.40
2023-01-25T03:46:28.823Z,11.50
2023-01-25T03:47:01.556Z,11.90
2023-01-25T03:47:34.264Z,12.30
2023-01-25T03:48:06.906Z,11.00
2023-01-25T03:48:39.571Z,11.20
2023-01-25T03:49:12.252Z,11.40
2023-01-25T03:49:44.908Z,12.20
2023-01-25T03:50:17.610Z,11.20
2023-01-25T03:50:50.269Z,12.00
2023-01-25T03:51:22.937Z,11.00
2023-01-25T03:51:55.601Z,11.60
2023-01-25T03:52:28.299Z,11.30
2023-01-25T03:53:00.953Z,11.80
2023-01-25T03:53:33.625Z,11.20
2023-01-25T03:54:06.305Z,11.30
2023-01-25T03:54:38.974Z,11.90
2023-01-25T03:55:11.934Z,12.00
2023-01-25T03:55:38.177Z,11.50
2023-01-25T03:56:10.836Z,11.20
2023-01-25T03:56:43.495Z,11.80
2023-01-25T03:57:16.164Z,11.50
2023-01-25T03:57:48.837Z,11.70
2023-01-25T03:58:21.523Z,11.20
2023-01-25T03:58:54.189Z,11.50
2023-01-25T03:59:26.849Z,12.00
2023-01-25T03:59:59.521Z,11.80
2023-01-25T04:00:32.204Z,11.80
2023-01-25T04:01:04.985Z,11.40
2023-01-25T04:01:37.638Z,11.80
2023-01-25T04:02:10.412Z,10.90
2023-01-25T04:02:43.151Z,11.60
2023-01-25T04:03:15.871Z,11.80
2023-01-25T04:03:48.575Z,12.00
2023-01-25T04:04:21.251Z,12.00
2023-01-25T04:04:53.924Z,11.50
2023-01-25T04:05:26.608Z,11.20
2023-01-25T04:05:59.302Z,11.30
2023-01-25T04:06:31.967Z,11.70
2023-01-25T04:07:04.637Z,12.20
2023-01-25T04:07:37.307Z,11.20
2023-01-25T04:08:09.979Z,11.50
2023-01-25T04:08:42.651Z,12.00
2023-01-25T04:09:15.337Z,11.90
2023-01-25T04:09:48.006Z,11.90
2023-01-25T04:10:20.711Z,11.60
2023-01-25T04:10:53.558Z,11.90
2023-01-25T04:11:26.233Z,11.60
2023-01-25T04:11:58.899Z,11.80
2023-01-25T04:12:31.560Z,11.80
2023-01-25T04:13:04.233Z,11.70
2023-01-25T04:13:36.932Z,11.40
2023-01-25T04:14:09.590Z,11.90
2023-01-25T04:14:44.769Z,11.50
2023-01-25T04:15:11.373Z,12.40
2023-01-25T04:15:37.650Z,11.80
2023-01-25T04:16:10.381Z,11.90
2023-01-25T04:16:43.064Z,12.00
2023-01-25T04:17:15.715Z,11.70
2023-01-25T04:17:48.561Z,12.30
2023-01-25T04:18:21.239Z,12.20
2023-01-25T04:18:53.890Z,11.80
2023-01-25T04:19:26.559Z,11.80
2023-01-25T04:19:59.234Z,12.60
2023-01-25T04:20:31.920Z,11.70
2023-01-25T04:21:03.013Z,12.20
2023-01-25T04:21:35.677Z,12.20
2023-01-25T04:22:08.353Z,11.90
2023-01-25T04:22:41.024Z,11.70
2023-01-25T04:23:13.704Z,12.20
2023-01-25T04:23:46.425Z,11.70
2023-01-25T04:24:19.125Z,12.00
2023-01-25T04:24:51.752Z,11.90
2023-01-25T04:25:24.436Z,11.80
2023-01-25T04:25:57.192Z,12.30
2023-01-25T04:26:29.834Z,12.10
2023-01-25T04:27:02.501Z,11.60
2023-01-25T04:27:35.186Z,11.70
2023-01-25T04:28:07.849Z,11.90
2023-01-25T04:28:40.546Z,12.10
2023-01-25T04:29:13.200Z,12.30
2023-01-25T04:29:45.877Z,12.10
2023-01-25T04:30:18.551Z,12.00
2023-01-25T04:30:51.222Z,12.20
2023-01-25T04:31:24.022Z,11.80
2023-01-25T04:31:56.807Z,12.80
2023-01-25T04:32:29.631Z,12.40
2023-01-25T04:33:02.475Z,12.60
2023-01-25T04:33:35.132Z,11.90
2023-01-25T04:34:07.808Z,12.30
2023-01-25T04:34:40.478Z,12.70
2023-01-25T04:35:13.166Z,12.70
2023-01-25T04:35:45.846Z,11.80
2023-01-25T04:36:18.522Z,12.10
2023-01-25T04:36:51.178Z,12.50
2023-01-25T04:37:23.851Z,12.70
2023-01-25T04:37:56.524Z,12.00
2023-01-25T04:38:29.186Z,12.00
2023-01-25T04:39:01.863Z,12.50
2023-01-25T04:39:34.565Z,12.40
2023-01-25T04:40:07.239Z,11.80
2023-01-25T04:40:39.912Z,12.40
2023-01-25T04:41:12.582Z,12.10
2023-01-25T04:41:45.264Z,12.30
2023-01-25T04:42:17.941Z,12.50
2023-01-25T04:42:50.603Z,12.20
2023-01-25T04:43:23.297Z,12.20
2023-01-25T04:43:55.975Z,11.80
2023-01-25T04:44:28.631Z,12.00
2023-01-25T04:45:01.305Z,12.30
2023-01-25T04:45:34.000Z,12.40
2023-01-25T04:46:06.730Z,11.60
2023-01-25T04:46:39.461Z,12.20
2023-01-25T04:47:12.116Z,12.00
2023-01-25T04:47:44.790Z,11.80
2023-01-25T04:48:17.473Z,11.90
2023-01-25T04:48:50.150Z,12.60
2023-01-25T04:49:22.799Z,12.20
2023-01-25T04:49:55.478Z,12.60
2023-01-25T04:50:28.158Z,12.50
2023-01-25T04:51:00.824Z,12.30
2023-01-25T04:51:33.499Z,13.20
2023-01-25T04:52:06.167Z,12.70
2023-01-25T04:52:38.837Z,12.60
2023-01-25T04:53:11.527Z,13.00
2023-01-25T04:53:44.174Z,12.70
2023-01-25T04:54:16.835Z,12.80
2023-01-25T04:54:49.497Z,12.10
2023-01-25T04:55:22.189Z,13.00
2023-01-25T04:55:54.862Z,13.00
2023-01-25T04:56:27.527Z,13.20
2023-01-25T04:57:00.196Z,12.80
2023-01-25T04:57:32.873Z,13.10
2023-01-25T04:58:05.559Z,13.00
2023-01-25T04:58:38.214Z,12.80
2023-01-25T04:59:10.912Z,13.50
2023-01-25T04:59:43.585Z,13.70
2023-01-25T05:00:14.692Z,13.60
2023-01-25T05:00:47.349Z,14.40
2023-01-25T05:01:20.067Z,13.50
2023-01-25T05:01:52.724Z,14.00
2023-01-25T05:02:25.506Z,13.30
2023-01-25T05:02:58.181Z,13.40
2023-01-25T05:03:30.845Z,13.50
2023-01-25T05:04:03.514Z,13.50
2023-01-25T05:04:36.187Z,13.90
2023-01-25T05:05:09.203Z,14.10
2023-01-25T05:05:35.475Z,13.80
2023-01-25T05:06:08.150Z,13.80
2023-01-25T05:06:40.824Z,13.40
2023-01-25T05:07:13.511Z,13.70
2023-01-25T05:07:46.169Z,13.70
2023-01-25T05:08:18.836Z,14.40
2023-01-25T05:08:51.530Z,14.00
2023-01-25T05:09:24.204Z,13.80
2023-01-25T05:09:56.887Z,13.50
2023-01-25T05:10:29.565Z,14.10
2023-01-25T05:11:02.235Z,13.70
2023-01-25T05:11:34.909Z,13.70
2023-01-25T05:12:07.571Z,13.60
2023-01-25T05:12:40.251Z,13.20
2023-01-25T05:13:12.931Z,13.80
2023-01-25T05:13:45.598Z,13.60
2023-01-25T05:14:18.298Z,14.20
2023-01-25T05:14:50.994Z,14.30
2023-01-25T05:15:23.692Z,14.20
2023-01-25T05:15:56.349Z,13.90
2023-01-25T05:16:29.075Z,14.40
2023-01-25T05:17:01.752Z,13.90
2023-01-25T05:17:34.386Z,14.00
2023-01-25T05:18:07.060Z,14.80
2023-01-25T05:18:48.312Z,14.30
2023-01-25T05:19:12.081Z,14.10
2023-01-25T05:19:38.279Z,13.50
2023-01-25T05:20:10.967Z,14.70
2023-01-25T05:20:43.636Z,14.90
2023-01-25T05:21:16.307Z,13.90
2023-01-25T05:21:49.013Z,14.20
2023-01-25T05:22:21.666Z,14.40
2023-01-25T05:22:54.331Z,14.80
2023-01-25T05:23:27.003Z,13.70
2023-01-25T05:23:59.814Z,14.30
2023-01-25T05:24:32.487Z,14.40
2023-01-25T05:25:05.158Z,14.60
2023-01-25T05:25:37.865Z,15.20
2023-01-25T05:26:10.511Z,14.60
2023-01-25T05:26:43.202Z,13.80
2023-01-25T05:27:15.866Z,14.30
2023-01-25T05:27:48.537Z,14.70
2023-01-25T05:28:21.198Z,15.10
2023-01-25T05:28:53.869Z,15.30
2023-01-25T05:29:26.559Z,14.90
2023-01-25T05:29:59.213Z,15.30
2023-01-25T05:30:31.903Z,15.00
2023-01-25T05:31:04.616Z,14.70
2023-01-25T05:31:37.389Z,15.00
2023-01-25T05:32:10.198Z,15.00
2023-01-25T05:32:42.878Z,15.60
2023-01-25T05:33:15.549Z,15.30
2023-01-25T05:33:48.208Z,15.10
2023-01-25T05:34:20.897Z,16.40
2023-01-25T05:34:53.561Z,15.20
2023-01-25T05:35:26.267Z,15.40
2023-01-25T05:35:58.952Z,15.00
2023-01-25T05:36:31.630Z,15.30
2023-01-25T05:37:04.289Z,15.20
2023-01-25T05:37:36.964Z,15.50
2023-01-25T05:38:09.631Z,15.10
2023-01-25T05:38:42.311Z,15.80
2023-01-25T05:39:14.975Z,15.70
2023-01-25T05:39:47.664Z,15.50
2023-01-25T05:40:20.344Z,15.30
2023-01-25T05:40:53.002Z,15.40
2023-01-25T05:41:25.672Z,15.20
2023-01-25T05:41:58.349Z,15.70
2023-01-25T05:42:31.025Z,15.30
2023-01-25T05:43:03.695Z,14.90
2023-01-25T05:43:36.379Z,15.70
2023-01-25T05:44:09.045Z,15.90
2023-01-25T05:44:41.739Z,15.40
2023-01-25T05:45:14.425Z,16.20
2023-01-25T05:45:47.225Z,15.40
2023-01-25T05:46:19.931Z,15.80
2023-01-25T05:46:52.798Z,15.10
2023-01-25T05:47:25.463Z,15.50
2023-01-25T05:47:58.137Z,15.10
2023-01-25T05:48:30.793Z,15.70
2023-01-25T05:49:03.471Z,15.60
2023-01-25T05:49:36.132Z,15.70
2023-01-25T05:50:09.666Z,15.30
2023-01-25T05:50:35.835Z,15.60
2023-01-25T05:51:08.500Z,15.40
2023-01-25T05:51:41.170Z,15.60
2023-01-25T05:52:13.835Z,16.10
2023-01-25T05:52:46.508Z,15.90
2023-01-25T05:53:19.176Z,14.90
2023-01-25T05:53:51.838Z,15.40
2023-01-25T05:54:24.526Z,15.70
2023-01-25T05:54:57.194Z,15.60
2023-01-25T05:55:29.892Z,15.60
2023-01-25T05:56:02.572Z,15.80
2023-01-25T05:56:35.241Z,15.90
2023-01-25T05:57:07.910Z,15.30
2023-01-25T05:57:40.593Z,16.10
2023-01-25T05:58:13.249Z,15.90
2023-01-25T05:58:45.921Z,15.70
2023-01-25T05:59:18.580Z,15.90
2023-01-25T05:59:51.270Z,16.20
2023-01-25T06:00:23.928Z,16.10
2023-01-25T06:00:56.598Z,15.90
2023-01-25T06:01:29.269Z,16.00
2023-01-25T06:02:01.932Z,16.30
2023-01-25T06:02:34.768Z,16.40
2023-01-25T06:03:07.649Z,15.80
2023-01-25T06:03:40.493Z,15.80
2023-01-25T06:04:13.166Z,16.20
2023-01-25T06:04:45.831Z,16.90
2023-01-25T06:05:18.522Z,16.10
2023-01-25T06:05:51.201Z,16.60
2023-01-25T06:06:23.865Z,16.50
2023-01-25T06:06:56.540Z,17.30
2023-01-25T06:07:29.209Z,16.60
2023-01-25T06:08:00.283Z,17.00
2023-01-25T06:08:32.951Z,16.50
2023-01-25T06:09:05.619Z,17.00
2023-01-25T06:09:38.340Z,17.10
2023-01-25T06:10:11.029Z,16.30
2023-01-25T06:10:43.676Z,17.00
2023-01-25T06:11:16.383Z,17.00
2023-01-25T06:11:49.056Z,16.60
2023-01-25T06:12:21.736Z,17.60
2023-01-25T06:12:54.411Z,17.10
2023-01-25T06:13:27.079Z,16.20
2023-01-25T06:13:59.757Z,16.20
2023-01-25T06:14:32.423Z,17.00
2023-01-25T06:15:05.184Z,16.90
2023-01-25T06:15:37.919Z,17.00
2023-01-25T06:16:10.637Z,17.70
2023-01-25T06:16:43.303Z,19.60
2023-01-25T06:17:15.974Z,19.20
2023-01-25T06:17:48.641Z,18.50
2023-01-25T06:18:21.347Z,18.20
2023-01-25T06:18:54.011Z,17.60
2023-01-25T06:19:26.699Z,18.50
2023-01-25T06:19:57.771Z,18.10
2023-01-25T06:20:30.443Z,17.80
2023-01-25T06:21:03.122Z,17.30
2023-01-25T06:21:35.798Z,17.30
2023-01-25T06:22:08.467Z,16.70
2023-01-25T06:22:41.185Z,16.50
2023-01-25T06:23:13.849Z,16.60
2023-01-25T06:23:46.525Z,16.90
2023-01-25T06:24:19.314Z,16.50
2023-01-25T06:24:51.962Z,16.30
2023-01-25T06:25:24.648Z,17.70
2023-01-25T06:25:57.334Z,16.50
2023-01-25T06:26:30.001Z,15.90
2023-01-25T06:27:02.649Z,16.60
2023-01-25T06:27:35.332Z,16.80
2023-01-25T06:28:07.999Z,16.70
2023-01-25T06:28:40.667Z,16.50
2023-01-25T06:29:13.357Z,16.90
2023-01-25T06:29:46.058Z,16.80
2023-01-25T06:30:18.756Z,16.40
2023-01-25T06:30:51.453Z,16.40
2023-01-25T06:31:24.159Z,17.00
2023-01-25T06:31:56.959Z,16.20
2023-01-25T06:32:29.606Z,17.60
2023-01-25T06:33:02.284Z,16.90
2023-01-25T06:33:34.985Z,17.50
2023-01-25T06:34:07.693Z,17.20
2023-01-25T06:34:40.405Z,17.10
2023-01-25T06:35:13.078Z,17.20
2023-01-25T06:35:45.769Z,17.10
2023-01-25T06:36:18.439Z,17.40
2023-01-25T06:36:51.116Z,17.70
2023-01-25T06:37:23.782Z,17.30
2023-01-25T06:37:56.445Z,18.40
2023-01-25T06:38:29.112Z,17.80
2023-01-25T06:39:01.775Z,17.70
2023-01-25T06:39:34.440Z,18.10
2023-01-25T06:40:07.114Z,18.60
2023-01-25T06:40:39.794Z,18.50
2023-01-25T06:41:12.479Z,18.10
2023-01-25T06:41:45.166Z,18.50
2023-01-25T06:42:17.834Z,18.20
2023-01-25T06:42:50.511Z,18.80
2023-01-25T06:43:23.174Z,18.40
2023-01-25T06:43:55.857Z,19.20
2023-01-25T06:44:28.507Z,18.50
2023-01-25T06:45:01.182Z,18.70
2023-01-25T06:45:33.889Z,18.50
2023-01-25T06:46:06.535Z,18.20
2023-01-25T06:46:39.283Z,18.60
2023-01-25T06:47:11.975Z,18.80
2023-01-25T06:47:44.641Z,18.30
2023-01-25T06:48:17.313Z,18.50
2023-01-25T06:48:49.990Z,17.80
2023-01-25T06:49:22.664Z,18.30
2023-01-25T06:49:55.336Z,17.30
2023-01-25T06:50:28.004Z,17.50
2023-01-25T06:51:00.699Z,17.80
2023-01-25T06:51:33.380Z,17.50
2023-01-25T06:52:06.049Z,17.70
2023-01-25T06:52:38.737Z,18.00
2023-01-25T06:53:11.413Z,17.60
2023-01-25T06:53:44.152Z,17.70
2023-01-25T06:54:16.797Z,16.70
2023-01-25T06:54:49.467Z,17.10
2023-01-25T06:55:22.153Z,17.50
2023-01-25T06:55:54.811Z,17.30
2023-01-25T06:56:27.558Z,17.60
2023-01-25T06:56:54.719Z,17.40
2023-01-25T06:57:27.378Z,17.40
2023-01-25T06:58:00.051Z,17.80
2023-01-25T06:58:32.725Z,18.00